sensor_id;sensor_type;location;lat;lon;timestamp;temperature;humidity
21580;DHT22;10951;59.656;9.666;2023-08-17T00:01:44;15.80;99.90
21580;DHT22;10951;59.656;9.666;2023-08-17T00:04:11;15.80;99.90
21580;DHT22;10951;59.656;9.666;2023-08-17T00:06:38;15.80;99.90
21580;DHT22;10951;59.656;9.666;2023-08-17T00:09:05;15.80;99.90
21580;DHT22;10951;59.656;9.666;2023-08-17T00:11:33;15.80;99.90
21580;DHT22;10951;59.656;9.666;2023-08-17T00:14:00;15.80;99.90
21580;DHT22;10951;59.656;9.666;2023-08-17T00:16:27;15.70;99.90
21580;DHT22;10951;59.656;9.666;2023-08-17T00:18:54;15.70;99.90
21580;DHT22;10951;59.656;9.666;2023-08-17T00:21:22;15.70;99.90
21580;DHT22;10951;59.656;9.666;2023-08-17T00:23:49;15.70;99.90
21580;DHT22;10951;59.656;9.666;2023-08-17T00:26:15;15.70;99.90
21580;DHT22;10951;59.656;9.666;2023-08-17T00:28:42;15.70;99.90
21580;DHT22;10951;59.656;9.666;2023-08-17T00:31:10;15.70;99.90
21580;DHT22;10951;59.656;9.666;2023-08-17T00:33:37;15.70;99.90
21580;DHT22;10951;59.656;9.666;2023-08-17T00:36:04;15.70;99.90
21580;DHT22;10951;59.656;9.666;2023-08-17T00:38:32;15.70;99.90
21580;DHT22;10951;59.656;9.666;2023-08-17T00:40:59;15.60;99.90
21580;DHT22;10951;59.656;9.666;2023-08-17T00:43:26;15.60;99.90
21580;DHT22;10951;59.656;9.666;2023-08-17T00:45:54;15.60;99.90
21580;DHT22;10951;59.656;9.666;2023-08-17T00:48:22;15.60;99.90
21580;DHT22;10951;59.656;9.666;2023-08-17T00:50:50;15.60;99.90
21580;DHT22;10951;59.656;9.666;2023-08-17T00:53:19;15.60;99.90
21580;DHT22;10951;59.656;9.666;2023-08-17T00:55:50;15.60;99.90
21580;DHT22;10951;59.656;9.666;2023-08-17T00:58:20;15.70;99.90
21580;DHT22;10951;59.656;9.666;2023-08-17T01:00:47;15.70;99.90
21580;DHT22;10951;59.656;9.666;2023-08-17T01:03:15;15.70;99.90
21580;DHT22;10951;59.656;9.666;2023-08-17T01:05:44;15.70;99.90
21580;DHT22;10951;59.656;9.666;2023-08-17T01:08:11;15.60;99.90
21580;DHT22;10951;59.656;9.666;2023-08-17T01:13:16;15.60;99.90
21580;DHT22;10951;59.656;9.666;2023-08-17T01:15:52;15.60;99.90
21580;DHT22;10951;59.656;9.666;2023-08-17T01:18:28;15.60;99.90
21580;DHT22;10951;59.656;9.666;2023-08-17T01:20:58;15.50;99.90
21580;DHT22;10951;59.656;9.666;2023-08-17T01:23:25;15.50;99.90
21580;DHT22;10951;59.656;9.666;2023-08-17T01:25:53;15.40;99.90
21580;DHT22;10951;59.656;9.666;2023-08-17T01:28:20;15.50;99.90
21580;DHT22;10951;59.656;9.666;2023-08-17T01:30:58;15.50;99.90
21580;DHT22;10951;59.656;9.666;2023-08-17T01:36:19;15.60;99.90
21580;DHT22;10951;59.656;9.666;2023-08-17T01:38:48;15.50;99.90
21580;DHT22;10951;59.656;9.666;2023-08-17T01:41:17;15.50;99.90
21580;DHT22;10951;59.656;9.666;2023-08-17T01:43:46;15.50;99.90
21580;DHT22;10951;59.656;9.666;2023-08-17T01:46:16;15.50;99.90
21580;DHT22;10951;59.656;9.666;2023-08-17T01:48:44;15.50;99.90
21580;DHT22;10951;59.656;9.666;2023-08-17T01:51:16;15.50;99.90
21580;DHT22;10951;59.656;9.666;2023-08-17T01:53:44;15.40;99.90
21580;DHT22;10951;59.656;9.666;2023-08-17T01:56:11;15.40;99.90
21580;DHT22;10951;59.656;9.666;2023-08-17T01:58:38;15.40;99.90
21580;DHT22;10951;59.656;9.666;2023-08-17T02:01:05;15.30;99.90
21580;DHT22;10951;59.656;9.666;2023-08-17T02:03:32;15.40;99.90
21580;DHT22;10951;59.656;9.666;2023-08-17T02:05:59;15.40;99.90
21580;DHT22;10951;59.656;9.666;2023-08-17T02:08:26;15.40;99.90
21580;DHT22;10951;59.656;9.666;2023-08-17T02:10:53;15.40;99.90
21580;DHT22;10951;59.656;9.666;2023-08-17T02:13:21;15.40;99.90
21580;DHT22;10951;59.656;9.666;2023-08-17T02:15:48;15.40;99.90
21580;DHT22;10951;59.656;9.666;2023-08-17T02:18:15;15.40;99.90
21580;DHT22;10951;59.656;9.666;2023-08-17T02:20:42;15.30;99.90
21580;DHT22;10951;59.656;9.666;2023-08-17T02:23:10;15.30;99.90
21580;DHT22;10951;59.656;9.666;2023-08-17T02:25:38;15.40;99.90
21580;DHT22;10951;59.656;9.666;2023-08-17T02:28:05;15.40;99.90
21580;DHT22;10951;59.656;9.666;2023-08-17T02:30:32;15.30;99.90
21580;DHT22;10951;59.656;9.666;2023-08-17T02:32:59;15.30;99.90
21580;DHT22;10951;59.656;9.666;2023-08-17T02:35:26;15.20;99.90
21580;DHT22;10951;59.656;9.666;2023-08-17T02:37:53;15.20;99.90
21580;DHT22;10951;59.656;9.666;2023-08-17T02:40:21;15.20;99.90
21580;DHT22;10951;59.656;9.666;2023-08-17T02:42:47;15.20;99.90
21580;DHT22;10951;59.656;9.666;2023-08-17T02:45:14;15.20;99.90
21580;DHT22;10951;59.656;9.666;2023-08-17T02:47:41;15.10;99.90
21580;DHT22;10951;59.656;9.666;2023-08-17T02:50:09;15.10;99.90
21580;DHT22;10951;59.656;9.666;2023-08-17T02:52:36;15.20;99.90
21580;DHT22;10951;59.656;9.666;2023-08-17T02:55:03;15.10;99.90
21580;DHT22;10951;59.656;9.666;2023-08-17T02:57:31;15.10;99.90
21580;DHT22;10951;59.656;9.666;2023-08-17T02:59:58;15.10;99.90
21580;DHT22;10951;59.656;9.666;2023-08-17T03:02:25;15.00;99.90
21580;DHT22;10951;59.656;9.666;2023-08-17T03:04:52;15.00;99.90
21580;DHT22;10951;59.656;9.666;2023-08-17T03:07:18;15.00;99.90
21580;DHT22;10951;59.656;9.666;2023-08-17T03:09:45;15.00;99.90
21580;DHT22;10951;59.656;9.666;2023-08-17T03:12:12;15.10;99.90
21580;DHT22;10951;59.656;9.666;2023-08-17T03:14:39;15.00;99.90
21580;DHT22;10951;59.656;9.666;2023-08-17T03:17:06;14.90;99.90
21580;DHT22;10951;59.656;9.666;2023-08-17T03:19:34;14.90;99.90
21580;DHT22;10951;59.656;9.666;2023-08-17T03:22:01;15.00;99.90
21580;DHT22;10951;59.656;9.666;2023-08-17T03:24:27;14.90;99.90
21580;DHT22;10951;59.656;9.666;2023-08-17T03:26:55;15.00;99.90
21580;DHT22;10951;59.656;9.666;2023-08-17T03:29:25;14.90;99.90
21580;DHT22;10951;59.656;9.666;2023-08-17T03:31:53;14.90;99.90
21580;DHT22;10951;59.656;9.666;2023-08-17T03:34:22;14.90;99.90
21580;DHT22;10951;59.656;9.666;2023-08-17T03:36:50;14.90;99.90
21580;DHT22;10951;59.656;9.666;2023-08-17T03:39:17;14.90;99.90
21580;DHT22;10951;59.656;9.666;2023-08-17T03:41:44;14.80;99.90
21580;DHT22;10951;59.656;9.666;2023-08-17T03:44:11;14.80;99.90
21580;DHT22;10951;59.656;9.666;2023-08-17T03:46:40;14.80;99.90
21580;DHT22;10951;59.656;9.666;2023-08-17T03:49:07;14.80;99.90
21580;DHT22;10951;59.656;9.666;2023-08-17T03:51:36;14.80;99.90
21580;DHT22;10951;59.656;9.666;2023-08-17T03:54:03;14.80;99.90
21580;DHT22;10951;59.656;9.666;2023-08-17T03:56:30;14.70;99.90
21580;DHT22;10951;59.656;9.666;2023-08-17T03:58:57;14.70;99.90
21580;DHT22;10951;59.656;9.666;2023-08-17T04:01:24;14.70;99.90
21580;DHT22;10951;59.656;9.666;2023-08-17T04:03:51;14.60;99.90
21580;DHT22;10951;59.656;9.666;2023-08-17T04:06:18;14.60;99.90
21580;DHT22;10951;59.656;9.666;2023-08-17T04:08:45;14.60;99.90
21580;DHT22;10951;59.656;9.666;2023-08-17T04:11:12;14.60;99.90
21580;DHT22;10951;59.656;9.666;2023-08-17T04:13:39;14.60;99.90
21580;DHT22;10951;59.656;9.666;2023-08-17T04:16:06;14.60;99.90
21580;DHT22;10951;59.656;9.666;2023-08-17T04:18:33;14.60;99.90
21580;DHT22;10951;59.656;9.666;2023-08-17T04:21:00;14.70;99.90
21580;DHT22;10951;59.656;9.666;2023-08-17T04:23:27;14.70;99.90
21580;DHT22;10951;59.656;9.666;2023-08-17T04:25:54;14.60;99.90
21580;DHT22;10951;59.656;9.666;2023-08-17T04:28:22;14.60;99.90
21580;DHT22;10951;59.656;9.666;2023-08-17T04:30:50;14.60;99.90
21580;DHT22;10951;59.656;9.666;2023-08-17T04:33:17;14.60;99.90
21580;DHT22;10951;59.656;9.666;2023-08-17T04:35:46;14.60;99.90
21580;DHT22;10951;59.656;9.666;2023-08-17T04:38:15;14.60;99.90
21580;DHT22;10951;59.656;9.666;2023-08-17T04:40:42;14.70;99.90
21580;DHT22;10951;59.656;9.666;2023-08-17T04:43:10;14.70;99.90
21580;DHT22;10951;59.656;9.666;2023-08-17T04:45:37;14.80;99.90
21580;DHT22;10951;59.656;9.666;2023-08-17T04:48:05;14.80;99.90
21580;DHT22;10951;59.656;9.666;2023-08-17T04:50:32;14.70;99.90
21580;DHT22;10951;59.656;9.666;2023-08-17T04:53:00;14.70;99.90
21580;DHT22;10951;59.656;9.666;2023-08-17T04:55:27;14.70;99.90
21580;DHT22;10951;59.656;9.666;2023-08-17T04:57:55;14.70;99.90
21580;DHT22;10951;59.656;9.666;2023-08-17T05:00:22;14.70;99.90
21580;DHT22;10951;59.656;9.666;2023-08-17T05:02:55;14.80;99.90
21580;DHT22;10951;59.656;9.666;2023-08-17T05:05:25;14.80;99.90
21580;DHT22;10951;59.656;9.666;2023-08-17T05:07:54;14.80;99.90
21580;DHT22;10951;59.656;9.666;2023-08-17T05:10:21;14.80;99.90
21580;DHT22;10951;59.656;9.666;2023-08-17T05:12:49;14.90;99.90
21580;DHT22;10951;59.656;9.666;2023-08-17T05:15:16;15.00;99.90
21580;DHT22;10951;59.656;9.666;2023-08-17T05:17:43;15.00;99.90
21580;DHT22;10951;59.656;9.666;2023-08-17T05:20:11;15.10;99.90
21580;DHT22;10951;59.656;9.666;2023-08-17T05:22:39;15.00;99.90
21580;DHT22;10951;59.656;9.666;2023-08-17T05:25:06;15.10;99.90
21580;DHT22;10951;59.656;9.666;2023-08-17T05:27:35;15.10;99.90
21580;DHT22;10951;59.656;9.666;2023-08-17T05:30:03;15.10;99.90
21580;DHT22;10951;59.656;9.666;2023-08-17T05:32:30;15.10;99.90
21580;DHT22;10951;59.656;9.666;2023-08-17T05:34:57;15.10;99.90
21580;DHT22;10951;59.656;9.666;2023-08-17T05:37:24;15.10;99.90
21580;DHT22;10951;59.656;9.666;2023-08-17T05:39:52;15.10;99.90
21580;DHT22;10951;59.656;9.666;2023-08-17T05:42:20;15.10;99.90
21580;DHT22;10951;59.656;9.666;2023-08-17T05:44:46;15.10;99.90
21580;DHT22;10951;59.656;9.666;2023-08-17T05:47:13;15.10;99.90
21580;DHT22;10951;59.656;9.666;2023-08-17T05:49:44;15.20;99.90
21580;DHT22;10951;59.656;9.666;2023-08-17T05:52:11;15.20;99.90
21580;DHT22;10951;59.656;9.666;2023-08-17T05:54:38;15.30;99.90
21580;DHT22;10951;59.656;9.666;2023-08-17T05:57:05;15.30;99.90
21580;DHT22;10951;59.656;9.666;2023-08-17T05:59:32;15.40;99.90
21580;DHT22;10951;59.656;9.666;2023-08-17T06:01:59;15.40;99.90
21580;DHT22;10951;59.656;9.666;2023-08-17T06:04:26;15.40;99.90
21580;DHT22;10951;59.656;9.666;2023-08-17T06:06:53;15.40;99.90
21580;DHT22;10951;59.656;9.666;2023-08-17T06:09:20;15.40;99.90
21580;DHT22;10951;59.656;9.666;2023-08-17T06:11:47;15.50;99.90
21580;DHT22;10951;59.656;9.666;2023-08-17T06:14:14;15.50;99.90
21580;DHT22;10951;59.656;9.666;2023-08-17T06:16:40;15.60;99.90
21580;DHT22;10951;59.656;9.666;2023-08-17T06:19:07;15.60;99.90
21580;DHT22;10951;59.656;9.666;2023-08-17T06:21:34;15.60;99.90
21580;DHT22;10951;59.656;9.666;2023-08-17T06:24:01;15.70;99.90
21580;DHT22;10951;59.656;9.666;2023-08-17T06:26:28;15.70;99.90
21580;DHT22;10951;59.656;9.666;2023-08-17T06:28:55;15.70;99.90
21580;DHT22;10951;59.656;9.666;2023-08-17T06:31:22;15.80;99.90
21580;DHT22;10951;59.656;9.666;2023-08-17T06:33:54;15.90;99.90
21580;DHT22;10951;59.656;9.666;2023-08-17T06:36:21;16.00;99.90
21580;DHT22;10951;59.656;9.666;2023-08-17T06:38:48;15.90;99.90
21580;DHT22;10951;59.656;9.666;2023-08-17T06:41:16;16.00;99.90
21580;DHT22;10951;59.656;9.666;2023-08-17T06:43:43;16.10;99.90
21580;DHT22;10951;59.656;9.666;2023-08-17T06:46:10;16.10;99.90
21580;DHT22;10951;59.656;9.666;2023-08-17T06:48:37;16.10;99.90
21580;DHT22;10951;59.656;9.666;2023-08-17T06:51:04;16.20;99.90
21580;DHT22;10951;59.656;9.666;2023-08-17T06:53:32;16.20;99.90
21580;DHT22;10951;59.656;9.666;2023-08-17T06:55:59;16.20;99.90
21580;DHT22;10951;59.656;9.666;2023-08-17T06:58:28;16.30;99.90
21580;DHT22;10951;59.656;9.666;2023-08-17T07:00:55;16.40;99.90
21580;DHT22;10951;59.656;9.666;2023-08-17T07:03:22;16.40;99.90
21580;DHT22;10951;59.656;9.666;2023-08-17T07:05:49;16.50;99.90
21580;DHT22;10951;59.656;9.666;2023-08-17T07:08:16;16.60;99.90
21580;DHT22;10951;59.656;9.666;2023-08-17T07:10:43;16.60;99.90
21580;DHT22;10951;59.656;9.666;2023-08-17T07:13:11;16.70;99.90
21580;DHT22;10951;59.656;9.666;2023-08-17T07:15:38;16.80;99.90
21580;DHT22;10951;59.656;9.666;2023-08-17T07:18:04;16.90;99.90
21580;DHT22;10951;59.656;9.666;2023-08-17T07:20:31;16.90;99.90
21580;DHT22;10951;59.656;9.666;2023-08-17T07:22:58;17.00;99.90
21580;DHT22;10951;59.656;9.666;2023-08-17T07:25:25;17.10;99.90
21580;DHT22;10951;59.656;9.666;2023-08-17T07:27:52;17.30;99.90
21580;DHT22;10951;59.656;9.666;2023-08-17T07:30:19;17.30;99.90
21580;DHT22;10951;59.656;9.666;2023-08-17T07:32:46;17.30;99.90
21580;DHT22;10951;59.656;9.666;2023-08-17T07:35:13;17.40;99.90
21580;DHT22;10951;59.656;9.666;2023-08-17T07:37:40;17.30;99.90
21580;DHT22;10951;59.656;9.666;2023-08-17T07:40:09;17.20;99.90
21580;DHT22;10951;59.656;9.666;2023-08-17T07:42:36;17.10;99.90
21580;DHT22;10951;59.656;9.666;2023-08-17T07:45:04;17.10;99.90
21580;DHT22;10951;59.656;9.666;2023-08-17T07:47:36;17.10;99.90
21580;DHT22;10951;59.656;9.666;2023-08-17T07:50:05;17.10;99.90
21580;DHT22;10951;59.656;9.666;2023-08-17T07:52:32;17.20;99.90
21580;DHT22;10951;59.656;9.666;2023-08-17T07:54:59;17.20;99.90
21580;DHT22;10951;59.656;9.666;2023-08-17T07:57:26;17.30;99.90
21580;DHT22;10951;59.656;9.666;2023-08-17T07:59:54;17.40;99.90
21580;DHT22;10951;59.656;9.666;2023-08-17T08:02:21;17.40;99.90
21580;DHT22;10951;59.656;9.666;2023-08-17T08:04:48;17.30;99.90
21580;DHT22;10951;59.656;9.666;2023-08-17T08:07:15;17.30;99.90
21580;DHT22;10951;59.656;9.666;2023-08-17T08:09:42;17.30;99.90
21580;DHT22;10951;59.656;9.666;2023-08-17T08:12:09;17.30;99.90
21580;DHT22;10951;59.656;9.666;2023-08-17T08:14:36;17.30;99.90
21580;DHT22;10951;59.656;9.666;2023-08-17T08:17:03;17.30;99.90
21580;DHT22;10951;59.656;9.666;2023-08-17T08:19:30;17.40;99.90
21580;DHT22;10951;59.656;9.666;2023-08-17T08:21:57;17.30;99.90
21580;DHT22;10951;59.656;9.666;2023-08-17T08:24:23;17.30;99.90
21580;DHT22;10951;59.656;9.666;2023-08-17T08:27:03;17.30;99.90
21580;DHT22;10951;59.656;9.666;2023-08-17T08:29:30;17.30;99.90
21580;DHT22;10951;59.656;9.666;2023-08-17T08:31:57;17.40;99.90
21580;DHT22;10951;59.656;9.666;2023-08-17T08:34:26;17.40;99.90
21580;DHT22;10951;59.656;9.666;2023-08-17T08:36:53;17.50;99.10
21580;DHT22;10951;59.656;9.666;2023-08-17T08:39:20;17.50;99.40
21580;DHT22;10951;59.656;9.666;2023-08-17T08:41:47;17.60;99.40
21580;DHT22;10951;59.656;9.666;2023-08-17T08:44:14;17.60;98.90
21580;DHT22;10951;59.656;9.666;2023-08-17T08:46:42;17.60;99.00
21580;DHT22;10951;59.656;9.666;2023-08-17T08:49:12;17.60;99.10
21580;DHT22;10951;59.656;9.666;2023-08-17T08:51:41;17.60;99.00
21580;DHT22;10951;59.656;9.666;2023-08-17T08:54:14;17.60;98.30
21580;DHT22;10951;59.656;9.666;2023-08-17T08:56:44;17.50;98.50
21580;DHT22;10951;59.656;9.666;2023-08-17T08:59:14;17.50;97.70
21580;DHT22;10951;59.656;9.666;2023-08-17T09:01:42;17.50;97.60
21580;DHT22;10951;59.656;9.666;2023-08-17T09:04:09;17.50;97.70
21580;DHT22;10951;59.656;9.666;2023-08-17T09:06:37;17.40;97.30
21580;DHT22;10951;59.656;9.666;2023-08-17T09:09:06;17.40;96.70
21580;DHT22;10951;59.656;9.666;2023-08-17T09:11:32;17.30;95.50
21580;DHT22;10951;59.656;9.666;2023-08-17T09:13:59;17.30;95.50
21580;DHT22;10951;59.656;9.666;2023-08-17T09:16:27;17.30;95.70
21580;DHT22;10951;59.656;9.666;2023-08-17T09:18:54;17.30;95.70
21580;DHT22;10951;59.656;9.666;2023-08-17T09:21:24;17.30;96.30
21580;DHT22;10951;59.656;9.666;2023-08-17T09:23:55;17.40;95.80
21580;DHT22;10951;59.656;9.666;2023-08-17T09:26:31;17.40;95.80
21580;DHT22;10951;59.656;9.666;2023-08-17T09:28:59;17.50;96.60
21580;DHT22;10951;59.656;9.666;2023-08-17T09:31:26;17.70;95.20
21580;DHT22;10951;59.656;9.666;2023-08-17T09:33:57;17.70;95.00
21580;DHT22;10951;59.656;9.666;2023-08-17T09:36:26;17.80;95.00
21580;DHT22;10951;59.656;9.666;2023-08-17T09:38:54;17.90;94.80
21580;DHT22;10951;59.656;9.666;2023-08-17T09:41:22;17.90;94.40
21580;DHT22;10951;59.656;9.666;2023-08-17T09:43:54;18.00;93.70
21580;DHT22;10951;59.656;9.666;2023-08-17T09:46:22;18.20;94.10
21580;DHT22;10951;59.656;9.666;2023-08-17T09:48:49;18.30;93.90
21580;DHT22;10951;59.656;9.666;2023-08-17T09:51:16;18.40;93.90
21580;DHT22;10951;59.656;9.666;2023-08-17T09:53:43;18.50;93.50
21580;DHT22;10951;59.656;9.666;2023-08-17T09:56:10;18.60;92.80
21580;DHT22;10951;59.656;9.666;2023-08-17T09:58:41;18.90;93.40
21580;DHT22;10951;59.656;9.666;2023-08-17T10:01:09;19.00;92.50
21580;DHT22;10951;59.656;9.666;2023-08-17T10:03:36;19.10;92.90
21580;DHT22;10951;59.656;9.666;2023-08-17T10:06:06;19.30;92.80
21580;DHT22;10951;59.656;9.666;2023-08-17T10:08:44;19.40;92.60
21580;DHT22;10951;59.656;9.666;2023-08-17T10:11:12;19.70;92.90
21580;DHT22;10951;59.656;9.666;2023-08-17T10:14:00;19.90;92.00
21580;DHT22;10951;59.656;9.666;2023-08-17T10:16:45;19.80;91.40
21580;DHT22;10951;59.656;9.666;2023-08-17T10:19:37;19.60;91.00
21580;DHT22;10951;59.656;9.666;2023-08-17T10:25:03;19.70;91.90
21580;DHT22;10951;59.656;9.666;2023-08-17T10:27:33;19.70;91.90
21580;DHT22;10951;59.656;9.666;2023-08-17T10:30:01;19.80;91.30
21580;DHT22;10951;59.656;9.666;2023-08-17T10:32:35;20.00;91.80
21580;DHT22;10951;59.656;9.666;2023-08-17T10:35:04;20.00;91.60
21580;DHT22;10951;59.656;9.666;2023-08-17T10:37:31;20.00;91.30
21580;DHT22;10951;59.656;9.666;2023-08-17T10:39:58;20.00;91.30
21580;DHT22;10951;59.656;9.666;2023-08-17T10:42:35;19.80;91.40
21580;DHT22;10951;59.656;9.666;2023-08-17T10:45:36;19.70;91.10
21580;DHT22;10951;59.656;9.666;2023-08-17T10:50:32;19.90;91.30
21580;DHT22;10951;59.656;9.666;2023-08-17T10:53:12;20.10;91.30
21580;DHT22;10951;59.656;9.666;2023-08-17T10:55:41;20.30;91.70
21580;DHT22;10951;59.656;9.666;2023-08-17T10:58:11;20.50;91.30
21580;DHT22;10951;59.656;9.666;2023-08-17T11:00:42;20.50;90.70
21580;DHT22;10951;59.656;9.666;2023-08-17T11:03:18;20.40;90.70
21580;DHT22;10951;59.656;9.666;2023-08-17T11:05:49;20.50;90.80
21580;DHT22;10951;59.656;9.666;2023-08-17T11:08:34;20.60;90.60
21580;DHT22;10951;59.656;9.666;2023-08-17T11:11:12;20.80;90.70
21580;DHT22;10951;59.656;9.666;2023-08-17T11:13:45;21.00;90.10
21580;DHT22;10951;59.656;9.666;2023-08-17T11:16:14;21.20;88.20
21580;DHT22;10951;59.656;9.666;2023-08-17T11:18:44;20.90;89.20
21580;DHT22;10951;59.656;9.666;2023-08-17T11:21:11;20.90;90.30
21580;DHT22;10951;59.656;9.666;2023-08-17T11:23:45;20.90;88.20
21580;DHT22;10951;59.656;9.666;2023-08-17T11:26:14;20.90;88.80
21580;DHT22;10951;59.656;9.666;2023-08-17T11:28:41;20.90;89.00
21580;DHT22;10951;59.656;9.666;2023-08-17T11:31:12;20.70;88.20
21580;DHT22;10951;59.656;9.666;2023-08-17T11:33:40;20.50;88.20
21580;DHT22;10951;59.656;9.666;2023-08-17T11:36:08;20.30;90.40
21580;DHT22;10951;59.656;9.666;2023-08-17T11:38:38;20.50;90.20
21580;DHT22;10951;59.656;9.666;2023-08-17T11:41:05;20.60;90.30
21580;DHT22;10951;59.656;9.666;2023-08-17T11:43:36;20.90;90.00
21580;DHT22;10951;59.656;9.666;2023-08-17T11:46:04;21.00;89.10
21580;DHT22;10951;59.656;9.666;2023-08-17T11:48:32;21.20;88.00
21580;DHT22;10951;59.656;9.666;2023-08-17T11:51:02;21.40;88.90
21580;DHT22;10951;59.656;9.666;2023-08-17T11:53:39;21.40;86.60
21580;DHT22;10951;59.656;9.666;2023-08-17T11:56:06;21.40;86.70
21580;DHT22;10951;59.656;9.666;2023-08-17T11:58:46;21.50;86.10
21580;DHT22;10951;59.656;9.666;2023-08-17T12:01:13;21.70;87.10
21580;DHT22;10951;59.656;9.666;2023-08-17T12:03:44;21.70;85.00
21580;DHT22;10951;59.656;9.666;2023-08-17T12:06:11;21.70;84.40
21580;DHT22;10951;59.656;9.666;2023-08-17T12:08:48;21.60;84.70
21580;DHT22;10951;59.656;9.666;2023-08-17T12:11:16;21.60;84.50
21580;DHT22;10951;59.656;9.666;2023-08-17T12:13:51;21.60;84.10
21580;DHT22;10951;59.656;9.666;2023-08-17T12:16:19;21.70;82.10
21580;DHT22;10951;59.656;9.666;2023-08-17T12:18:52;21.90;82.70
21580;DHT22;10951;59.656;9.666;2023-08-17T12:21:21;22.00;81.10
21580;DHT22;10951;59.656;9.666;2023-08-17T12:23:49;22.00;82.10
21580;DHT22;10951;59.656;9.666;2023-08-17T12:26:22;22.00;81.10
21580;DHT22;10951;59.656;9.666;2023-08-17T12:28:49;22.00;81.20
21580;DHT22;10951;59.656;9.666;2023-08-17T12:31:21;22.10;81.50
21580;DHT22;10951;59.656;9.666;2023-08-17T12:33:48;22.30;80.60
21580;DHT22;10951;59.656;9.666;2023-08-17T12:36:15;22.30;82.80
21580;DHT22;10951;59.656;9.666;2023-08-17T12:38:42;22.40;80.80
21580;DHT22;10951;59.656;9.666;2023-08-17T12:41:11;22.20;80.10
21580;DHT22;10951;59.656;9.666;2023-08-17T12:43:38;22.10;80.30
21580;DHT22;10951;59.656;9.666;2023-08-17T12:46:05;22.00;79.40
21580;DHT22;10951;59.656;9.666;2023-08-17T12:48:32;22.10;81.90
21580;DHT22;10951;59.656;9.666;2023-08-17T12:51:02;22.10;79.10
21580;DHT22;10951;59.656;9.666;2023-08-17T12:53:31;22.20;79.60
21580;DHT22;10951;59.656;9.666;2023-08-17T12:55:58;22.10;79.40
21580;DHT22;10951;59.656;9.666;2023-08-17T12:58:25;22.00;79.20
21580;DHT22;10951;59.656;9.666;2023-08-17T13:00:52;21.90;79.80
21580;DHT22;10951;59.656;9.666;2023-08-17T13:03:21;21.90;80.30
21580;DHT22;10951;59.656;9.666;2023-08-17T13:05:48;22.10;80.30
21580;DHT22;10951;59.656;9.666;2023-08-17T13:08:15;22.30;79.60
21580;DHT22;10951;59.656;9.666;2023-08-17T13:10:42;22.10;80.00
21580;DHT22;10951;59.656;9.666;2023-08-17T13:13:09;22.10;78.50
21580;DHT22;10951;59.656;9.666;2023-08-17T13:15:36;22.00;80.20
21580;DHT22;10951;59.656;9.666;2023-08-17T13:18:03;21.90;80.80
21580;DHT22;10951;59.656;9.666;2023-08-17T13:20:31;21.80;81.70
21580;DHT22;10951;59.656;9.666;2023-08-17T13:22:57;21.70;80.80
21580;DHT22;10951;59.656;9.666;2023-08-17T13:25:25;21.60;78.90
21580;DHT22;10951;59.656;9.666;2023-08-17T13:27:52;21.40;79.70
21580;DHT22;10951;59.656;9.666;2023-08-17T13:30:19;21.30;81.70
21580;DHT22;10951;59.656;9.666;2023-08-17T13:32:46;21.30;81.90
21580;DHT22;10951;59.656;9.666;2023-08-17T13:35:14;21.40;83.70
21580;DHT22;10951;59.656;9.666;2023-08-17T13:37:40;21.40;82.10
21580;DHT22;10951;59.656;9.666;2023-08-17T13:40:08;21.50;84.30
21580;DHT22;10951;59.656;9.666;2023-08-17T13:42:35;21.60;80.00
21580;DHT22;10951;59.656;9.666;2023-08-17T13:45:03;21.50;79.30
21580;DHT22;10951;59.656;9.666;2023-08-17T13:47:30;21.50;79.20
21580;DHT22;10951;59.656;9.666;2023-08-17T13:49:57;21.40;79.70
21580;DHT22;10951;59.656;9.666;2023-08-17T13:52:25;21.40;79.80
21580;DHT22;10951;59.656;9.666;2023-08-17T13:54:52;21.50;80.50
21580;DHT22;10951;59.656;9.666;2023-08-17T13:57:19;21.60;81.90
21580;DHT22;10951;59.656;9.666;2023-08-17T13:59:46;21.60;80.90
21580;DHT22;10951;59.656;9.666;2023-08-17T14:02:13;21.60;80.70
21580;DHT22;10951;59.656;9.666;2023-08-17T14:04:40;21.50;80.10
21580;DHT22;10951;59.656;9.666;2023-08-17T14:07:07;21.60;81.40
21580;DHT22;10951;59.656;9.666;2023-08-17T14:09:34;21.70;80.50
21580;DHT22;10951;59.656;9.666;2023-08-17T14:12:01;21.70;79.40
21580;DHT22;10951;59.656;9.666;2023-08-17T14:14:28;21.70;79.80
21580;DHT22;10951;59.656;9.666;2023-08-17T14:16:55;21.60;79.80
21580;DHT22;10951;59.656;9.666;2023-08-17T14:19:23;21.50;80.00
21580;DHT22;10951;59.656;9.666;2023-08-17T14:21:50;21.40;81.70
21580;DHT22;10951;59.656;9.666;2023-08-17T14:24:18;21.40;81.40
21580;DHT22;10951;59.656;9.666;2023-08-17T14:26:45;21.40;82.20
21580;DHT22;10951;59.656;9.666;2023-08-17T14:29:11;21.40;80.20
21580;DHT22;10951;59.656;9.666;2023-08-17T14:31:38;21.60;80.40
21580;DHT22;10951;59.656;9.666;2023-08-17T14:34:05;21.90;79.00
21580;DHT22;10951;59.656;9.666;2023-08-17T14:36:33;22.10;78.80
21580;DHT22;10951;59.656;9.666;2023-08-17T14:39:00;22.30;77.80
21580;DHT22;10951;59.656;9.666;2023-08-17T14:41:27;22.40;78.80
21580;DHT22;10951;59.656;9.666;2023-08-17T14:43:59;22.60;76.50
21580;DHT22;10951;59.656;9.666;2023-08-17T14:46:29;22.70;75.60
21580;DHT22;10951;59.656;9.666;2023-08-17T14:48:56;22.80;74.80
21580;DHT22;10951;59.656;9.666;2023-08-17T14:51:24;22.60;74.30
21580;DHT22;10951;59.656;9.666;2023-08-17T14:53:57;22.40;76.10
21580;DHT22;10951;59.656;9.666;2023-08-17T14:56:24;22.10;76.80
21580;DHT22;10951;59.656;9.666;2023-08-17T14:58:50;21.90;78.00
21580;DHT22;10951;59.656;9.666;2023-08-17T15:01:17;21.80;78.00
21580;DHT22;10951;59.656;9.666;2023-08-17T15:03:45;21.70;78.60
21580;DHT22;10951;59.656;9.666;2023-08-17T15:06:13;21.70;79.70
21580;DHT22;10951;59.656;9.666;2023-08-17T15:08:59;21.60;79.70
21580;DHT22;10951;59.656;9.666;2023-08-17T15:11:26;21.60;80.10
21580;DHT22;10951;59.656;9.666;2023-08-17T15:13:53;21.50;78.20
21580;DHT22;10951;59.656;9.666;2023-08-17T15:16:20;21.50;78.60
21580;DHT22;10951;59.656;9.666;2023-08-17T15:18:52;21.30;79.10
21580;DHT22;10951;59.656;9.666;2023-08-17T15:21:19;21.40;80.30
21580;DHT22;10951;59.656;9.666;2023-08-17T15:23:46;21.40;80.60
21580;DHT22;10951;59.656;9.666;2023-08-17T15:26:13;21.40;81.30
21580;DHT22;10951;59.656;9.666;2023-08-17T15:28:41;21.50;80.10
21580;DHT22;10951;59.656;9.666;2023-08-17T15:31:08;21.50;78.10
21580;DHT22;10951;59.656;9.666;2023-08-17T15:33:40;21.60;79.90
21580;DHT22;10951;59.656;9.666;2023-08-17T15:36:07;21.60;79.70
21580;DHT22;10951;59.656;9.666;2023-08-17T15:38:34;21.50;78.80
21580;DHT22;10951;59.656;9.666;2023-08-17T15:41:01;21.50;79.00
21580;DHT22;10951;59.656;9.666;2023-08-17T15:43:28;21.60;78.00
21580;DHT22;10951;59.656;9.666;2023-08-17T15:45:54;21.60;77.70
21580;DHT22;10951;59.656;9.666;2023-08-17T15:48:22;21.80;77.90